Rhl Felicitas — A8SV2 — position and weather

sailwx.info

Track history (hours):
 
Tides and Currents Weather Stations Pressure Air Temp Water Temp Dewpoint Dewpoint Depression Visibility Wind Speed Wind Dir Waves Ship Positions

Rhl Felicitas

Last reported at 2015-Jan-08 22:33 UTC. Time now 2015-Jan-28 14:10 UTC.
Position N 01°44' E 102°44'.
Warning: this ship's position is 19 days out of date.

Length 294 m; draft 12.3 m.

Type: Ship (hazmat cat D). MMSI: 636091781.

Date/timePositionNaut miles runAvg speedWind from/ knotsBaromVisibWave heightAir tempDewpointWater temp
2015-Jan-08 22:33N 01°44' E 102°44'6613.2
2015-Jan-08 17:33N 01°15' E 103°44'2 1.8
2015-Jan-08 16:32N 01°17' E 103°45'0 0.0
2015-Jan-08 15:32N 01°17' E 103°45'0 0.0
2015-Jan-08 14:32N 01°17' E 103°45'0 0.0
2015-Jan-08 13:08N 01°17' E 103°45'0 0.0
2015-Jan-08 12:32N 01°17' E 103°45'0 0.0
2015-Jan-08 11:32N 01°17' E 103°45'0 0.0
2015-Jan-08 10:23N 01°17' E 103°45'0 0.0
2015-Jan-08 09:32N 01°17' E 103°45'0 0.0
2015-Jan-08 08:32N 01°17' E 103°45'0 0.0
2015-Jan-08 07:32N 01°17' E 103°45'0 0.0
2015-Jan-08 06:20N 01°17' E 103°45'0 0.0
2015-Jan-08 04:32N 01°17' E 103°45'  
2015-Jan-01 16:22N 01°16' E 104°14'1316.0
2015-Jan-01 15:33N 01°16' E 104°01'5 5.1
2015-Jan-01 14:33N 01°16' E 103°56'0 0.0
2015-Jan-01 13:15N 01°16' E 103°56'0 0.1
2015-Jan-01 12:06N 01°16' E 103°56'0 0.0
2015-Jan-01 11:33N 01°16' E 103°56'0 0.0
2015-Jan-01 10:33N 01°16' E 103°56'0 0.1
2015-Jan-01 09:30N 01°16' E 103°56'0 0.1
2015-Jan-01 08:33N 01°16' E 103°56'0 0.1
2015-Jan-01 07:33N 01°16' E 103°56'0 0.1
2015-Jan-01 06:21N 01°16' E 103°56'0 0.1
2015-Jan-01 05:24N 01°16' E 103°56'0 0.1
2015-Jan-01 04:33N 01°16' E 103°56'5 4.8
2015-Jan-01 03:34N 01°13' E 103°53'8 7.7
2015-Jan-01 02:32N 01°17' E 103°46'0 0.1
2014-Dec-31 21:15N 01°17' E 103°46'0 0.0
2014-Dec-31 20:12N 01°17' E 103°46'0 0.0
2014-Dec-31 18:15N 01°17' E 103°46'0 0.0
2014-Dec-31 15:18N 01°17' E 103°46'0 0.0
2014-Dec-31 14:21N 01°17' E 103°46'0 0.0
2014-Dec-31 13:15N 01°17' E 103°46'0 0.0
2014-Dec-31 12:24N 01°17' E 103°46'0 0.0
2014-Dec-31 11:33N 01°17' E 103°46'0 0.0
2014-Dec-31 10:33N 01°17' E 103°46'0 0.0
2014-Dec-31 09:33N 01°17' E 103°46'0 0.0
2014-Dec-31 08:33N 01°17' E 103°46'0 0.0
2014-Dec-31 07:18N 01°17' E 103°46'0 0.5
2014-Dec-31 06:33N 01°17' E 103°46'3 2.8
2014-Dec-31 05:33N 01°15' E 103°44'4 2.1
2014-Dec-31 03:31N 01°12' E 103°41'0 0.0
2014-Dec-31 00:13N 01°12' E 103°41'0 0.0
2014-Dec-30 21:31N 01°12' E 103°41'0 0.0
2014-Dec-30 18:07N 01°12' E 103°41'0 0.0
2014-Dec-30 15:31N 01°12' E 103°41'0 0.1
2014-Dec-30 14:25N 01°12' E 103°41'0 0.0
2014-Dec-30 12:22N 01°12' E 103°41'0 0.0
2014-Dec-30 11:31N 01°12' E 103°41'2 2.3
2014-Dec-30 10:33N 01°12' E 103°39'5 5.0
2014-Dec-30 09:33N 01°11' E 103°34'7815.6
2014-Dec-30 04:33N 01°48' E 102°25'  
Track history (hours):
 
Tides and Currents Weather Stations Pressure Air Temp Water Temp Dewpoint Dewpoint Depression Visibility Wind Speed Wind Dir Waves Ship Positions

Rhl Felicitas

Last reported at 2015-Jan-08 22:33 UTC. Time now 2015-Jan-28 14:10 UTC.
Position N 01°44' E 102°44'.
Warning: this ship's position is 19 days out of date.

Length 294 m; draft 12.3 m.

Type: Ship (hazmat cat D). MMSI: 636091781.

Date/timePositionNaut miles runAvg speedWind from/ knotsBaromVisibWave heightAir tempDewpointWater temp
2015-Jan-08 22:33N 01°44' E 102°44'6613.2
2015-Jan-08 17:33N 01°15' E 103°44'2 1.8
2015-Jan-08 16:32N 01°17' E 103°45'0 0.0
2015-Jan-08 15:32N 01°17' E 103°45'0 0.0
2015-Jan-08 14:32N 01°17' E 103°45'0 0.0
2015-Jan-08 13:08N 01°17' E 103°45'0 0.0
2015-Jan-08 12:32N 01°17' E 103°45'0 0.0
2015-Jan-08 11:32N 01°17' E 103°45'0 0.0
2015-Jan-08 10:23N 01°17' E 103°45'0 0.0
2015-Jan-08 09:32N 01°17' E 103°45'0 0.0
2015-Jan-08 08:32N 01°17' E 103°45'0 0.0
2015-Jan-08 07:32N 01°17' E 103°45'0 0.0
2015-Jan-08 06:20N 01°17' E 103°45'0 0.0
2015-Jan-08 04:32N 01°17' E 103°45'  
2015-Jan-01 16:22N 01°16' E 104°14'1316.0
2015-Jan-01 15:33N 01°16' E 104°01'5 5.1
2015-Jan-01 14:33N 01°16' E 103°56'0 0.0
2015-Jan-01 13:15N 01°16' E 103°56'0 0.1
2015-Jan-01 12:06N 01°16' E 103°56'0 0.0
2015-Jan-01 11:33N 01°16' E 103°56'0 0.0
2015-Jan-01 10:33N 01°16' E 103°56'0 0.1
2015-Jan-01 09:30N 01°16' E 103°56'0 0.1
2015-Jan-01 08:33N 01°16' E 103°56'0 0.1
2015-Jan-01 07:33N 01°16' E 103°56'0 0.1
2015-Jan-01 06:21N 01°16' E 103°56'0 0.1
2015-Jan-01 05:24N 01°16' E 103°56'0 0.1
2015-Jan-01 04:33N 01°16' E 103°56'5 4.8
2015-Jan-01 03:34N 01°13' E 103°53'8 7.7
2015-Jan-01 02:32N 01°17' E 103°46'0 0.1
2014-Dec-31 21:15N 01°17' E 103°46'0 0.0
2014-Dec-31 20:12N 01°17' E 103°46'0 0.0
2014-Dec-31 18:15N 01°17' E 103°46'0 0.0
2014-Dec-31 15:18N 01°17' E 103°46'0 0.0
2014-Dec-31 14:21N 01°17' E 103°46'0 0.0
2014-Dec-31 13:15N 01°17' E 103°46'0 0.0
2014-Dec-31 12:24N 01°17' E 103°46'0 0.0
2014-Dec-31 11:33N 01°17' E 103°46'0 0.0
2014-Dec-31 10:33N 01°17' E 103°46'0 0.0
2014-Dec-31 09:33N 01°17' E 103°46'0 0.0
2014-Dec-31 08:33N 01°17' E 103°46'0 0.0
2014-Dec-31 07:18N 01°17' E 103°46'0 0.5
2014-Dec-31 06:33N 01°17' E 103°46'3 2.8
2014-Dec-31 05:33N 01°15' E 103°44'4 2.1
2014-Dec-31 03:31N 01°12' E 103°41'0 0.0
2014-Dec-31 00:13N 01°12' E 103°41'0 0.0
2014-Dec-30 21:31N 01°12' E 103°41'0 0.0
2014-Dec-30 18:07N 01°12' E 103°41'0 0.0
2014-Dec-30 15:31N 01°12' E 103°41'0 0.1
2014-Dec-30 14:25N 01°12' E 103°41'0 0.0
2014-Dec-30 12:22N 01°12' E 103°41'0 0.0
2014-Dec-30 11:31N 01°12' E 103°41'2 2.3
2014-Dec-30 10:33N 01°12' E 103°39'5 5.0
2014-Dec-30 09:33N 01°11' E 103°34'7815.6
2014-Dec-30 04:33N 01°48' E 102°25'  

Dump ship's entire track history